createdAt,value
2023-02-24T00:01:46.859Z,99403.00
2023-02-24T00:06:14.571Z,99394.20
2023-02-24T00:12:26.258Z,99386.40
2023-02-24T00:16:44.387Z,99376.80
2023-02-24T00:24:21.961Z,99371.00
2023-02-24T00:28:04.344Z,99361.60
2023-02-24T00:31:14.357Z,99362.40
2023-02-24T00:34:47.033Z,99354.80
2023-02-24T00:38:16.065Z,99354.00
2023-02-24T00:42:33.399Z,99349.00
2023-02-24T00:47:01.020Z,99345.00
2023-02-24T00:50:41.241Z,99336.60
2023-02-24T00:53:48.141Z,99336.40
2023-02-24T00:57:17.005Z,99328.40
2023-02-24T01:01:34.441Z,99325.80
2023-02-24T01:06:01.801Z,99328.80
2023-02-24T01:09:44.785Z,99323.20
2023-02-24T01:12:52.803Z,99323.20
2023-02-24T01:16:00.191Z,99323.40
2023-02-24T01:19:29.017Z,99320.60
2023-02-24T01:22:57.961Z,99316.00
2023-02-24T01:26:27.103Z,99312.60
2023-02-24T01:29:57.273Z,99316.60
2023-02-24T01:33:26.040Z,99310.40
2023-02-24T01:36:54.917Z,99305.40
2023-02-24T01:40:22.945Z,99303.00
2023-02-24T01:43:54.908Z,99291.80
2023-02-24T01:47:25.064Z,99290.20
2023-02-24T01:50:53.069Z,99283.20
2023-02-24T01:54:22.221Z,99278.40
2023-02-24T01:57:52.165Z,99272.20
2023-02-24T02:01:21.241Z,99266.60
2023-02-24T02:05:50.257Z,99263.80
2023-02-24T02:12:39.226Z,99254.60
2023-02-24T02:16:22.051Z,99254.40
2023-02-24T02:19:35.144Z,99259.00
2023-02-24T02:33:19.309Z,99240.40
2023-02-24T02:36:51.156Z,99234.80
2023-02-24T02:40:29.040Z,99232.40
2023-02-24T02:44:01.074Z,99231.40
2023-02-24T02:47:12.075Z,99227.80
2023-02-24T02:50:25.053Z,99227.00
2023-02-24T02:53:50.005Z,99219.00
2023-02-24T02:57:10.109Z,99219.00
2023-02-24T03:00:40.459Z,99218.20
2023-02-24T03:03:55.057Z,99218.20
2023-02-24T03:07:24.172Z,99214.00
2023-02-24T03:10:54.065Z,99208.00
2023-02-24T03:14:25.958Z,99205.40
2023-02-24T03:18:05.767Z,99199.00
2023-02-24T03:22:07.504Z,99196.20
2023-02-24T03:26:38.191Z,99195.60
2023-02-24T03:31:06.288Z,99190.80
2023-02-24T03:35:48.337Z,99189.20
2023-02-24T03:39:29.034Z,99187.60
2023-02-24T03:42:59.179Z,99188.40
2023-02-24T03:46:28.701Z,99184.00
2023-02-24T03:50:08.154Z,99180.60
2023-02-24T03:53:42.922Z,99177.80
2023-02-24T03:56:53.712Z,99174.40
2023-02-24T04:00:08.085Z,99172.60
2023-02-24T04:03:15.914Z,99173.60
2023-02-24T04:06:56.394Z,99167.20
2023-02-24T04:11:13.698Z,99158.80
2023-02-24T04:18:04.020Z,99156.80
2023-02-24T04:21:47.053Z,99148.20
2023-02-24T04:25:28.758Z,99147.00
2023-02-24T04:28:38.967Z,99143.40
2023-02-24T04:32:10.395Z,99142.00
2023-02-24T04:35:39.971Z,99140.60
2023-02-24T04:39:09.055Z,99132.80
2023-02-24T04:42:56.612Z,99132.40
2023-02-24T04:46:28.106Z,99130.00
2023-02-24T04:49:41.777Z,99124.80
2023-02-24T04:52:55.736Z,99127.80
2023-02-24T04:56:27.026Z,99125.60
2023-02-24T04:59:37.794Z,99125.20
2023-02-24T05:03:06.804Z,99120.60
2023-02-24T05:06:35.846Z,99115.00
2023-02-24T05:10:03.916Z,99116.00
2023-02-24T05:13:31.999Z,99110.20
2023-02-24T05:16:39.231Z,99110.20
2023-02-24T05:19:56.927Z,99105.00
2023-02-24T05:23:26.021Z,99108.40
2023-02-24T05:26:49.998Z,99106.80
2023-02-24T05:29:57.607Z,99104.60
2023-02-24T05:33:05.740Z,99102.60
2023-02-24T05:36:13.859Z,99102.80
2023-02-24T05:39:20.804Z,99100.40
2023-02-24T05:42:44.028Z,99097.80
2023-02-24T05:46:24.104Z,99093.00
2023-02-24T05:49:31.869Z,99096.60
2023-02-24T05:53:11.944Z,99101.00
2023-02-24T05:56:34.883Z,99105.60
2023-02-24T05:59:47.915Z,99103.20
2023-02-24T06:03:09.619Z,99097.80
2023-02-24T06:05:39.529Z,99096.80
2023-02-24T06:08:10.967Z,99097.00
2023-02-24T06:10:52.574Z,99102.00
2023-02-24T06:13:19.574Z,99097.80
2023-02-24T06:15:49.881Z,99104.80
2023-02-24T06:18:17.075Z,99098.60
2023-02-24T06:20:50.595Z,99103.80
2023-02-24T06:23:17.615Z,99094.60
2023-02-24T06:25:44.873Z,99098.20
2023-02-24T06:28:11.878Z,99092.60
2023-02-24T06:30:39.022Z,99090.60
2023-02-24T06:33:06.236Z,99097.60
2023-02-24T06:35:33.398Z,99098.40
2023-02-24T06:38:00.327Z,99093.20
2023-02-24T06:40:27.481Z,99093.60
2023-02-24T06:42:54.978Z,99097.20
2023-02-24T06:45:23.754Z,99098.20
2023-02-24T06:47:50.636Z,99106.60
2023-02-24T06:50:19.640Z,99108.60
2023-02-24T06:52:48.741Z,99104.20
2023-02-24T06:55:26.000Z,99104.00
2023-02-24T06:58:04.603Z,99106.00
2023-02-24T07:00:37.776Z,99108.00
2023-02-24T07:03:14.718Z,99114.40
2023-02-24T07:05:53.564Z,99113.80
2023-02-24T07:08:24.585Z,99109.20
2023-02-24T07:10:57.639Z,99114.00
2023-02-24T07:13:29.905Z,99105.60
2023-02-24T07:16:06.548Z,99106.40
2023-02-24T07:18:39.979Z,99107.00
2023-02-24T07:21:11.030Z,99109.00
2023-02-24T07:23:40.480Z,99106.60
2023-02-24T07:26:11.701Z,99101.60
2023-02-24T07:28:41.938Z,99107.40
2023-02-24T07:31:16.476Z,99099.80
2023-02-24T07:33:45.879Z,99092.00
2023-02-24T07:36:17.817Z,99098.60
2023-02-24T07:38:45.282Z,99097.60
2023-02-24T07:41:18.789Z,99094.80
2023-02-24T07:43:45.845Z,99097.60
2023-02-24T07:46:18.854Z,99093.60
2023-02-24T07:48:46.128Z,99090.00
2023-02-24T07:51:16.714Z,99090.80
2023-02-24T07:53:43.828Z,99082.20
2023-02-24T07:56:16.905Z,99086.00
2023-02-24T07:58:51.575Z,99077.00
2023-02-24T08:01:27.563Z,99075.60
2023-02-24T08:04:00.692Z,99079.40
2023-02-24T08:06:38.297Z,99079.20
2023-02-24T08:09:18.957Z,99076.40
2023-02-24T08:11:55.610Z,99071.00
2023-02-24T08:14:34.852Z,99068.60
2023-02-24T08:17:04.835Z,99070.40
2023-02-24T08:19:38.973Z,99062.40
2023-02-24T08:22:23.414Z,99060.00
2023-02-24T08:25:00.091Z,99064.00
2023-02-24T08:27:31.961Z,99064.60
2023-02-24T08:30:02.333Z,99064.40
2023-02-24T08:32:42.888Z,99058.00
2023-02-24T08:35:16.959Z,99054.20
2023-02-24T08:37:51.555Z,99055.00
2023-02-24T08:40:33.296Z,99056.40
2023-02-24T08:43:16.195Z,99054.20
2023-02-24T08:45:58.857Z,99045.20
2023-02-24T08:48:49.287Z,99041.80
2023-02-24T08:51:28.252Z,99035.60
2023-02-24T08:53:59.603Z,99028.00
2023-02-24T08:56:33.971Z,99027.00
2023-02-24T08:59:05.202Z,99024.80
2023-02-24T09:01:37.520Z,99021.00
2023-02-24T09:04:18.362Z,99014.20
2023-02-24T09:06:48.295Z,99022.60
2023-02-24T09:09:21.985Z,99018.40
2023-02-24T09:11:58.232Z,99009.20
2023-02-24T17:35:15.646Z,98390.40
2023-02-24T17:37:42.772Z,98386.20
2023-02-24T17:40:11.412Z,98382.20
2023-02-24T17:42:38.926Z,98378.60
2023-02-24T17:45:07.584Z,98370.00
2023-02-24T17:47:35.541Z,98369.80
2023-02-24T17:50:06.497Z,98373.40
2023-02-24T17:52:33.618Z,98370.20
2023-02-24T17:55:00.569Z,98372.00
2023-02-24T17:57:28.898Z,98364.40
2023-02-24T18:00:12.120Z,98363.00
2023-02-24T18:02:41.110Z,98361.20
2023-02-24T18:05:22.741Z,98362.40
2023-02-24T18:07:49.698Z,98356.20
2023-02-24T18:10:17.304Z,98359.20
2023-02-24T18:12:44.180Z,98351.00
2023-02-24T19:17:31.483Z,98271.20
2023-02-24T19:19:59.402Z,98259.40
2023-02-24T19:22:26.924Z,98257.40
2023-02-24T19:24:53.984Z,98252.60
2023-02-24T19:27:20.701Z,98247.20
2023-02-24T19:29:47.726Z,98249.20
2023-02-24T19:32:14.613Z,98247.00
2023-02-24T19:34:42.284Z,98241.20
2023-02-24T19:37:09.166Z,98243.40
2023-02-24T19:39:36.670Z,98240.00
2023-02-24T19:42:06.094Z,98234.40
2023-02-24T19:44:33.966Z,98233.20
2023-02-24T19:47:00.886Z,98229.60
2023-02-24T19:49:28.101Z,98222.40
2023-02-24T19:51:57.103Z,98224.80
2023-02-24T19:54:24.926Z,98232.80
2023-02-24T19:56:52.147Z,98230.80
2023-02-24T19:59:19.192Z,98231.40
2023-02-24T20:02:01.760Z,98226.60
2023-02-24T20:04:44.230Z,98228.20
2023-02-24T20:07:11.363Z,98222.40
2023-02-24T20:09:42.405Z,98214.40
2023-02-24T20:12:10.327Z,98210.80
2023-02-24T20:14:37.344Z,98207.60
2023-02-24T20:17:04.498Z,98202.40
2023-02-24T20:19:33.038Z,98195.60
2023-02-24T20:22:01.484Z,98190.60
2023-02-24T20:24:28.248Z,98194.80
2023-02-24T20:29:37.209Z,98191.80
2023-02-24T20:32:04.512Z,98185.80
2023-02-24T20:34:31.627Z,98193.20
2023-02-24T20:36:58.397Z,98186.40
2023-02-24T20:42:21.414Z,98185.40
2023-02-24T20:44:48.429Z,98189.20
2023-02-24T20:47:29.923Z,98189.60
2023-02-24T20:49:57.009Z,98189.00
2023-02-24T20:52:24.299Z,98185.80
2023-02-24T20:54:51.734Z,98185.20
2023-02-24T20:57:19.001Z,98180.40
2023-02-24T21:00:01.484Z,98177.60
2023-02-24T21:02:29.932Z,98176.00
2023-02-24T21:04:56.966Z,98174.60
2023-02-24T21:07:24.104Z,98168.20
2023-02-24T21:09:51.727Z,98165.40
2023-02-24T21:12:19.204Z,98158.80
2023-02-24T21:14:46.188Z,98157.80
2023-02-24T21:17:13.240Z,98151.40
2023-02-24T21:19:40.264Z,98147.20
2023-02-24T21:22:07.407Z,98142.40
2023-02-24T21:24:34.680Z,98145.60
2023-02-24T21:27:01.639Z,98129.80
2023-02-24T21:29:44.839Z,98127.60
2023-02-24T21:32:12.014Z,98121.80
2023-02-24T21:34:53.500Z,98116.00
2023-02-24T21:37:20.377Z,98113.60
2023-02-24T21:39:47.286Z,98106.40
2023-02-24T21:42:14.331Z,98103.40
2023-02-24T21:44:42.928Z,98107.60
2023-02-24T21:47:26.029Z,98104.00
2023-02-24T21:49:53.586Z,98100.40
2023-02-24T21:52:20.605Z,98102.40
2023-02-24T21:54:49.159Z,98099.00
2023-02-24T21:57:16.798Z,98103.40
2023-02-24T21:59:43.977Z,98104.60
2023-02-24T22:02:16.239Z,98095.40
2023-02-24T22:04:44.517Z,98099.60
2023-02-24T22:07:11.879Z,98102.80
2023-02-24T22:09:39.338Z,98101.00
2023-02-24T22:12:06.710Z,98101.40
2023-02-24T22:14:34.059Z,98101.40
2023-02-24T22:17:01.037Z,98101.20
2023-02-24T22:19:28.159Z,98105.40
2023-02-24T22:21:59.011Z,98096.80
2023-02-24T22:24:26.296Z,98096.40
2023-02-24T22:26:53.361Z,98094.60
2023-02-24T22:29:20.528Z,98093.80
2023-02-24T22:31:49.724Z,98094.20
2023-02-24T22:34:17.141Z,98096.00
2023-02-24T22:36:44.226Z,98093.60
2023-02-24T22:39:15.982Z,98094.00
2023-02-24T22:41:44.082Z,98091.40
2023-02-24T22:44:18.042Z,98087.00
2023-02-24T22:46:45.743Z,98089.00
2023-02-24T22:49:13.383Z,98087.00
2023-02-24T22:51:41.985Z,98088.20
2023-02-24T22:54:09.394Z,98083.60
2023-02-24T22:56:37.465Z,98086.00
2023-02-24T22:59:30.362Z,98083.40
2023-02-24T23:03:30.317Z,98081.80
2023-02-24T23:07:06.274Z,98085.00
2023-02-24T23:10:41.085Z,98092.40
2023-02-24T23:14:10.202Z,98090.20
2023-02-24T23:17:43.190Z,98091.40
2023-02-24T23:21:20.295Z,98084.80
2023-02-24T23:24:56.097Z,98082.80
2023-02-24T23:28:33.814Z,98085.60
2023-02-24T23:32:17.469Z,98084.00
2023-02-24T23:36:36.729Z,98083.20
2023-02-24T23:43:32.016Z,98074.00
2023-02-24T23:46:52.131Z,98068.60
2023-02-24T23:50:30.253Z,98064.80
2023-02-24T23:54:02.953Z,98066.40
2023-02-24T23:57:44.997Z,98054.60
